createdAt,value
2018-12-23T00:00:50.667Z,7.90
2018-12-23T00:04:53.276Z,7.90
2018-12-23T00:08:55.868Z,7.80
2018-12-23T00:12:58.512Z,7.90
2018-12-23T00:17:01.125Z,7.90
2018-12-23T00:21:03.752Z,7.80
2018-12-23T00:25:06.448Z,7.80
2018-12-23T00:29:09.065Z,7.80
2018-12-23T00:33:11.685Z,7.80
2018-12-23T00:37:14.292Z,7.80
2018-12-23T00:41:17.023Z,7.80
2018-12-23T00:45:19.875Z,7.80
2018-12-23T00:49:22.483Z,7.80
2018-12-23T00:53:25.119Z,7.80
2018-12-23T00:57:27.733Z,7.80
2018-12-23T01:01:30.349Z,7.80
2018-12-23T01:05:32.968Z,7.80
2018-12-23T01:09:36.300Z,7.80
2018-12-23T01:13:39.097Z,7.80
2018-12-23T01:17:41.713Z,7.80
2018-12-23T01:21:44.357Z,7.80
2018-12-23T01:25:46.954Z,7.80
2018-12-23T01:29:50.321Z,7.80
2018-12-23T01:33:53.025Z,7.80
2018-12-23T01:37:55.681Z,7.80
2018-12-23T01:41:58.314Z,7.80
2018-12-23T01:46:00.933Z,7.80
2018-12-23T01:50:03.738Z,7.90
2018-12-23T01:54:06.372Z,7.80
2018-12-23T01:58:08.989Z,7.80
2018-12-23T02:02:11.600Z,7.90
2018-12-23T02:06:14.240Z,7.90
2018-12-23T02:10:16.833Z,7.90
2018-12-23T02:14:19.446Z,7.90
2018-12-23T02:18:22.069Z,7.90
2018-12-23T02:22:24.943Z,7.90
2018-12-23T02:26:27.658Z,7.90
2018-12-23T02:30:30.314Z,7.90
2018-12-23T02:34:32.922Z,7.90
2018-12-23T02:38:38.533Z,7.90
2018-12-23T02:42:41.197Z,7.90
2018-12-23T02:46:43.809Z,7.90
2018-12-23T02:50:46.437Z,7.90
2018-12-23T02:54:49.072Z,7.90
2018-12-23T02:58:51.709Z,7.90
2018-12-23T03:02:54.438Z,7.90
2018-12-23T03:06:57.018Z,7.90
2018-12-23T03:10:59.775Z,7.90
2018-12-23T03:15:02.419Z,7.90
2018-12-23T03:19:05.051Z,7.90
2018-12-23T03:23:07.678Z,7.90
2018-12-23T03:27:10.373Z,7.90
2018-12-23T03:31:13.007Z,7.90
2018-12-23T03:35:15.742Z,7.90
2018-12-23T03:39:18.361Z,7.90
2018-12-23T03:43:21.005Z,8.00
2018-12-23T03:47:23.638Z,8.00
2018-12-23T03:51:26.244Z,8.00
2018-12-23T03:55:28.917Z,8.00
2018-12-23T03:59:31.570Z,8.00
2018-12-23T04:03:34.221Z,8.00
2018-12-23T04:07:36.828Z,8.00
2018-12-23T04:11:39.442Z,8.00
2018-12-23T04:15:42.159Z,8.00
2018-12-23T04:19:44.788Z,8.00
2018-12-23T04:23:47.399Z,8.00
2018-12-23T04:27:50.042Z,8.00
2018-12-23T04:31:52.773Z,8.00
2018-12-23T04:35:55.391Z,8.00
2018-12-23T04:39:58.021Z,8.00
2018-12-23T04:44:00.625Z,8.00
2018-12-23T04:48:03.244Z,8.00
2018-12-23T04:52:05.873Z,8.00
2018-12-23T04:56:08.526Z,8.00
2018-12-23T05:00:11.183Z,8.00
2018-12-23T05:04:13.796Z,8.00
2018-12-23T05:08:16.516Z,8.00
2018-12-23T05:12:19.137Z,8.00
2018-12-23T05:16:21.769Z,7.90
2018-12-23T05:20:24.743Z,7.90
2018-12-23T05:24:27.407Z,7.90
2018-12-23T05:28:30.044Z,7.90
2018-12-23T05:32:32.674Z,7.90
2018-12-23T05:36:35.541Z,7.80
2018-12-23T05:40:38.160Z,7.80
2018-12-23T05:44:40.781Z,7.80
2018-12-23T05:48:43.389Z,7.80
2018-12-23T05:52:46.005Z,7.80
2018-12-23T05:56:48.778Z,7.80
2018-12-23T06:00:51.400Z,7.80
2018-12-23T06:04:53.993Z,7.80
2018-12-23T06:08:56.624Z,7.80
2018-12-23T06:12:59.261Z,7.80
2018-12-23T06:17:01.958Z,7.80
2018-12-23T06:21:04.965Z,7.80
2018-12-23T06:25:07.597Z,7.80
2018-12-23T06:29:10.501Z,7.80
2018-12-23T06:33:13.296Z,7.80
2018-12-23T06:37:15.921Z,7.80
2018-12-23T06:41:19.036Z,7.80
2018-12-23T06:45:21.763Z,7.80
2018-12-23T06:49:24.564Z,7.80
2018-12-23T06:53:27.189Z,7.80
2018-12-23T06:57:29.822Z,7.80
2018-12-23T07:01:32.414Z,7.80
2018-12-23T07:05:35.485Z,7.80
2018-12-23T07:09:38.252Z,7.90
2018-12-23T07:13:41.004Z,7.90
2018-12-23T07:17:43.793Z,7.80
2018-12-23T07:21:46.405Z,7.90
2018-12-23T07:25:49.014Z,7.90
2018-12-23T07:29:51.719Z,7.90
2018-12-23T07:33:54.362Z,7.90
2018-12-23T07:37:56.998Z,7.90
2018-12-23T07:41:59.603Z,7.90
2018-12-23T07:46:03.083Z,7.90
2018-12-23T07:50:05.901Z,7.90
2018-12-23T07:54:09.169Z,7.90
2018-12-23T07:58:12.182Z,7.90
2018-12-23T08:02:14.857Z,7.90
2018-12-23T08:06:17.512Z,7.90
2018-12-23T08:10:20.174Z,7.90
2018-12-23T08:14:22.852Z,7.90
2018-12-23T08:18:25.462Z,7.90
2018-12-23T08:22:29.073Z,7.90
2018-12-23T08:26:31.767Z,8.00
2018-12-23T08:30:34.471Z,8.00
2018-12-23T08:34:37.160Z,8.00
2018-12-23T08:38:39.825Z,8.00
2018-12-23T08:42:42.540Z,8.00
2018-12-23T08:46:45.301Z,8.00
2018-12-23T08:50:48.319Z,8.00
2018-12-23T08:54:51.003Z,8.00
2018-12-23T08:58:53.659Z,8.00
2018-12-23T09:02:56.307Z,8.00
2018-12-23T09:07:00.259Z,8.00
2018-12-23T09:11:02.984Z,8.10
2018-12-23T09:15:05.873Z,8.10
2018-12-23T09:19:08.536Z,8.10
2018-12-23T09:23:11.297Z,8.10
2018-12-23T09:27:14.833Z,8.10
2018-12-23T09:31:17.498Z,8.10
2018-12-23T09:35:20.117Z,8.20
2018-12-23T09:39:22.753Z,8.20
2018-12-23T09:43:25.382Z,8.20
2018-12-23T09:47:28.038Z,8.20
2018-12-23T09:51:30.730Z,8.20
2018-12-23T09:55:33.389Z,8.20
2018-12-23T09:59:36.016Z,8.20
2018-12-23T10:03:38.612Z,8.30
2018-12-23T10:07:41.289Z,8.30
2018-12-23T10:11:44.052Z,8.30
2018-12-23T10:15:46.674Z,8.30
2018-12-23T10:19:49.307Z,8.30
2018-12-23T10:23:51.921Z,8.30
2018-12-23T10:27:54.617Z,8.30
2018-12-23T10:31:57.251Z,8.40
2018-12-23T10:35:59.900Z,8.40
2018-12-23T10:40:02.552Z,8.40
2018-12-23T10:44:05.280Z,8.40
2018-12-23T10:48:07.938Z,8.40
2018-12-23T10:52:10.591Z,8.40
2018-12-23T10:56:13.224Z,8.40
2018-12-23T11:00:15.891Z,8.40
2018-12-23T11:04:18.530Z,8.40
2018-12-23T11:08:26.943Z,8.40
2018-12-23T11:12:25.821Z,8.40
2018-12-23T11:16:28.448Z,8.40
2018-12-23T11:20:31.120Z,8.40
2018-12-23T11:24:35.192Z,8.50
2018-12-23T11:28:37.857Z,8.50
2018-12-23T11:32:40.580Z,8.50
2018-12-23T11:36:43.277Z,8.50
2018-12-23T11:40:45.904Z,8.50
2018-12-23T11:44:48.582Z,8.40
2018-12-23T11:48:51.179Z,8.50
2018-12-23T11:52:54.131Z,8.50
2018-12-23T11:56:56.758Z,8.50
2018-12-23T12:01:15.245Z,8.50
2018-12-23T12:05:18.077Z,8.50
2018-12-23T12:09:20.687Z,8.50
2018-12-23T12:13:23.344Z,8.50
2018-12-23T12:17:26.063Z,8.50
2018-12-23T12:21:28.773Z,8.50
2018-12-23T12:25:31.679Z,8.50
2018-12-23T12:29:34.308Z,8.50
2018-12-23T12:33:37.200Z,8.50
2018-12-23T12:37:39.994Z,8.50
2018-12-23T12:41:42.741Z,8.50
2018-12-23T12:45:45.759Z,8.60
2018-12-23T12:49:48.525Z,8.60
2018-12-23T12:53:51.282Z,8.50
2018-12-23T12:57:54.028Z,8.60
2018-12-23T13:01:57.486Z,8.60
2018-12-23T13:06:00.261Z,8.60
2018-12-23T13:10:03.125Z,8.60
2018-12-23T13:14:05.860Z,8.60
2018-12-23T13:18:08.580Z,8.60
2018-12-23T13:22:11.281Z,8.60
2018-12-23T13:26:14.326Z,8.60
2018-12-23T13:30:17.147Z,8.60
2018-12-23T13:34:20.174Z,8.60
2018-12-23T13:38:22.900Z,8.50
2018-12-23T13:42:34.439Z,8.50
2018-12-23T13:46:47.504Z,8.50
2018-12-23T13:50:55.874Z,8.50
2018-12-23T13:55:10.699Z,8.50
2018-12-23T13:59:18.712Z,8.50
2018-12-23T14:03:25.911Z,8.50
2018-12-23T14:07:33.309Z,8.40
2018-12-23T14:11:41.814Z,8.40
2018-12-23T14:15:44.460Z,8.40
2018-12-23T14:19:47.354Z,8.40
2018-12-23T14:23:50.016Z,8.30
2018-12-23T14:27:52.758Z,8.30
2018-12-23T14:31:55.485Z,8.30
2018-12-23T14:35:58.170Z,8.30
2018-12-23T14:40:00.843Z,8.30
2018-12-23T14:44:03.576Z,8.30
2018-12-23T14:48:06.343Z,8.20
2018-12-23T14:52:09.048Z,8.20
2018-12-23T14:56:11.918Z,8.20
2018-12-23T15:00:14.621Z,8.20
2018-12-23T15:04:17.250Z,8.20
2018-12-23T15:08:19.874Z,8.20
2018-12-23T15:12:22.464Z,8.20
2018-12-23T15:16:25.094Z,8.20
2018-12-23T15:20:28.328Z,8.20
2018-12-23T15:24:30.970Z,8.20
2018-12-23T15:28:33.600Z,8.20
2018-12-23T15:32:36.231Z,8.20
2018-12-23T15:36:38.919Z,8.20
2018-12-23T15:40:41.587Z,8.20
2018-12-23T15:44:44.289Z,8.20
2018-12-23T15:52:53.855Z,8.10
2018-12-23T15:56:56.505Z,8.10
2018-12-23T16:01:57.595Z,8.10
2018-12-23T16:06:12.419Z,8.10
2018-12-23T16:10:27.454Z,8.10
2018-12-23T16:14:42.318Z,8.10
2018-12-23T16:18:56.932Z,8.00
2018-12-23T16:23:11.733Z,8.00
2018-12-23T16:27:27.040Z,8.00
2018-12-23T16:31:40.498Z,8.00
2018-12-23T17:12:22.687Z,7.80
2018-12-23T17:16:44.988Z,7.90
2018-12-23T17:21:07.296Z,7.80
2018-12-23T17:25:29.700Z,7.80
2018-12-23T17:29:51.991Z,7.80
2018-12-23T17:34:14.499Z,7.80
2018-12-23T17:38:38.289Z,7.80
2018-12-23T18:37:46.209Z,7.70
2018-12-23T19:14:12.531Z,7.60
2018-12-23T19:18:34.761Z,7.50
2018-12-23T19:22:57.133Z,7.50
2018-12-23T19:27:19.414Z,7.50
2018-12-23T19:31:41.715Z,7.50
2018-12-23T19:36:03.924Z,7.50
2018-12-23T19:40:26.214Z,7.50
2018-12-23T22:02:24.403Z,6.80
2018-12-23T22:06:47.824Z,6.80
2018-12-23T22:11:11.801Z,6.80
2018-12-23T22:15:34.653Z,6.80
2018-12-23T22:19:57.045Z,6.80
2018-12-23T22:24:19.949Z,6.80
2018-12-23T22:28:43.846Z,6.80
2018-12-23T22:33:06.526Z,6.70
2018-12-23T22:37:29.399Z,6.70
2018-12-23T22:41:52.256Z,6.70
